sensor_id;sensor_type;location;lat;lon;timestamp;P1;durP1;ratioP1;P2;durP2;ratioP2
78406;SDS011;67692;51.074;-1.790;2023-02-28T00:00:24;63.63;;;11.07;;
78406;SDS011;67692;51.074;-1.790;2023-02-28T00:02:50;39.05;;;7.57;;
78406;SDS011;67692;51.074;-1.790;2023-02-28T00:05:18;40.60;;;8.13;;
78406;SDS011;67692;51.074;-1.790;2023-02-28T00:07:45;39.28;;;7.47;;
78406;SDS011;67692;51.074;-1.790;2023-02-28T00:10:14;14.43;;;3.13;;
78406;SDS011;67692;51.074;-1.790;2023-02-28T00:12:44;13.82;;;3.22;;
78406;SDS011;67692;51.074;-1.790;2023-02-28T00:15:12;21.13;;;4.95;;
78406;SDS011;67692;51.074;-1.790;2023-02-28T00:17:39;14.50;;;4.93;;
78406;SDS011;67692;51.074;-1.790;2023-02-28T00:20:06;12.40;;;3.78;;
78406;SDS011;67692;51.074;-1.790;2023-02-28T00:22:35;13.45;;;3.60;;
78406;SDS011;67692;51.074;-1.790;2023-02-28T00:25:02;24.55;;;7.32;;
78406;SDS011;67692;51.074;-1.790;2023-02-28T00:27:30;9.48;;;2.92;;
78406;SDS011;67692;51.074;-1.790;2023-02-28T00:29:56;5.80;;;1.98;;
78406;SDS011;67692;51.074;-1.790;2023-02-28T00:32:24;4.57;;;1.77;;
78406;SDS011;67692;51.074;-1.790;2023-02-28T00:34:51;10.73;;;2.20;;
78406;SDS011;67692;51.074;-1.790;2023-02-28T00:37:17;7.15;;;1.77;;
78406;SDS011;67692;51.074;-1.790;2023-02-28T00:39:44;4.80;;;2.05;;
78406;SDS011;67692;51.074;-1.790;2023-02-28T00:42:11;7.07;;;1.90;;
78406;SDS011;67692;51.074;-1.790;2023-02-28T00:44:37;9.40;;;1.83;;
78406;SDS011;67692;51.074;-1.790;2023-02-28T00:47:04;7.10;;;1.95;;
78406;SDS011;67692;51.074;-1.790;2023-02-28T00:49:32;7.93;;;2.30;;
78406;SDS011;67692;51.074;-1.790;2023-02-28T00:51:59;9.73;;;2.15;;
78406;SDS011;67692;51.074;-1.790;2023-02-28T00:54:25;6.75;;;1.80;;
78406;SDS011;67692;51.074;-1.790;2023-02-28T00:56:52;5.90;;;2.15;;
78406;SDS011;67692;51.074;-1.790;2023-02-28T00:59:18;9.00;;;1.88;;
78406;SDS011;67692;51.074;-1.790;2023-02-28T01:01:46;3.90;;;1.38;;
78406;SDS011;67692;51.074;-1.790;2023-02-28T01:04:13;4.88;;;1.70;;
78406;SDS011;67692;51.074;-1.790;2023-02-28T01:06:41;5.53;;;1.42;;
78406;SDS011;67692;51.074;-1.790;2023-02-28T01:09:08;4.50;;;1.85;;
78406;SDS011;67692;51.074;-1.790;2023-02-28T01:11:35;3.80;;;1.45;;
78406;SDS011;67692;51.074;-1.790;2023-02-28T01:14:02;3.28;;;1.35;;
78406;SDS011;67692;51.074;-1.790;2023-02-28T01:16:30;5.97;;;1.67;;
78406;SDS011;67692;51.074;-1.790;2023-02-28T01:18:56;4.05;;;1.30;;
78406;SDS011;67692;51.074;-1.790;2023-02-28T01:21:23;8.38;;;2.00;;
78406;SDS011;67692;51.074;-1.790;2023-02-28T01:23:51;6.75;;;1.88;;
78406;SDS011;67692;51.074;-1.790;2023-02-28T01:26:18;3.42;;;1.33;;
78406;SDS011;67692;51.074;-1.790;2023-02-28T01:28:47;10.20;;;1.88;;
78406;SDS011;67692;51.074;-1.790;2023-02-28T01:31:13;8.25;;;1.67;;
78406;SDS011;67692;51.074;-1.790;2023-02-28T01:33:40;4.90;;;1.70;;
78406;SDS011;67692;51.074;-1.790;2023-02-28T01:36:09;6.72;;;1.90;;
78406;SDS011;67692;51.074;-1.790;2023-02-28T01:38:37;4.07;;;1.70;;
78406;SDS011;67692;51.074;-1.790;2023-02-28T01:41:05;6.28;;;1.58;;
78406;SDS011;67692;51.074;-1.790;2023-02-28T01:46:19;6.50;;;1.80;;
78406;SDS011;67692;51.074;-1.790;2023-02-28T01:48:47;6.10;;;2.20;;
78406;SDS011;67692;51.074;-1.790;2023-02-28T01:51:18;4.90;;;1.42;;
78406;SDS011;67692;51.074;-1.790;2023-02-28T01:53:49;6.82;;;1.60;;
78406;SDS011;67692;51.074;-1.790;2023-02-28T01:56:20;3.67;;;1.33;;
78406;SDS011;67692;51.074;-1.790;2023-02-28T01:58:49;2.42;;;1.30;;
78406;SDS011;67692;51.074;-1.790;2023-02-28T02:01:18;11.30;;;2.35;;
78406;SDS011;67692;51.074;-1.790;2023-02-28T02:03:46;4.45;;;1.50;;
78406;SDS011;67692;51.074;-1.790;2023-02-28T02:06:17;7.80;;;1.90;;
78406;SDS011;67692;51.074;-1.790;2023-02-28T02:08:44;6.97;;;1.42;;
78406;SDS011;67692;51.074;-1.790;2023-02-28T02:11:11;6.38;;;2.00;;
78406;SDS011;67692;51.074;-1.790;2023-02-28T02:13:58;7.40;;;1.60;;
78406;SDS011;67692;51.074;-1.790;2023-02-28T02:16:36;5.55;;;1.88;;
78406;SDS011;67692;51.074;-1.790;2023-02-28T02:19:18;5.43;;;1.65;;
78406;SDS011;67692;51.074;-1.790;2023-02-28T02:25:05;4.55;;;1.83;;
78406;SDS011;67692;51.074;-1.790;2023-02-28T02:27:39;3.15;;;1.77;;
78406;SDS011;67692;51.074;-1.790;2023-02-28T02:30:37;5.63;;;2.00;;
78406;SDS011;67692;51.074;-1.790;2023-02-28T02:33:17;6.97;;;2.03;;
78406;SDS011;67692;51.074;-1.790;2023-02-28T02:36:17;8.85;;;1.73;;
78406;SDS011;67692;51.074;-1.790;2023-02-28T02:38:49;8.40;;;2.30;;
78406;SDS011;67692;51.074;-1.790;2023-02-28T02:43:51;6.65;;;1.85;;
78406;SDS011;67692;51.074;-1.790;2023-02-28T02:46:24;8.10;;;1.55;;
78406;SDS011;67692;51.074;-1.790;2023-02-28T02:48:55;6.28;;;2.55;;
78406;SDS011;67692;51.074;-1.790;2023-02-28T02:51:27;9.30;;;2.38;;
78406;SDS011;67692;51.074;-1.790;2023-02-28T02:56:27;6.22;;;2.30;;
78406;SDS011;67692;51.074;-1.790;2023-02-28T02:58:57;4.70;;;2.03;;
78406;SDS011;67692;51.074;-1.790;2023-02-28T03:01:27;5.28;;;2.13;;
78406;SDS011;67692;51.074;-1.790;2023-02-28T03:03:57;7.30;;;2.13;;
78406;SDS011;67692;51.074;-1.790;2023-02-28T03:06:28;5.00;;;2.00;;
78406;SDS011;67692;51.074;-1.790;2023-02-28T03:08:54;6.20;;;2.13;;
78406;SDS011;67692;51.074;-1.790;2023-02-28T03:11:21;7.90;;;2.05;;
78406;SDS011;67692;51.074;-1.790;2023-02-28T03:13:52;11.93;;;3.50;;
78406;SDS011;67692;51.074;-1.790;2023-02-28T03:16:29;7.82;;;2.20;;
78406;SDS011;67692;51.074;-1.790;2023-02-28T03:19:10;5.70;;;2.10;;
78406;SDS011;67692;51.074;-1.790;2023-02-28T03:21:50;8.85;;;1.98;;
78406;SDS011;67692;51.074;-1.790;2023-02-28T03:24:24;6.45;;;1.80;;
78406;SDS011;67692;51.074;-1.790;2023-02-28T03:26:58;4.80;;;2.08;;
78406;SDS011;67692;51.074;-1.790;2023-02-28T03:29:34;5.35;;;1.73;;
78406;SDS011;67692;51.074;-1.790;2023-02-28T03:32:04;7.00;;;2.10;;
78406;SDS011;67692;51.074;-1.790;2023-02-28T03:34:39;10.13;;;2.17;;
78406;SDS011;67692;51.074;-1.790;2023-02-28T03:37:11;7.15;;;2.33;;
78406;SDS011;67692;51.074;-1.790;2023-02-28T03:39:43;9.63;;;2.40;;
78406;SDS011;67692;51.074;-1.790;2023-02-28T03:42:14;6.38;;;2.15;;
78406;SDS011;67692;51.074;-1.790;2023-02-28T03:44:45;6.45;;;2.60;;
78406;SDS011;67692;51.074;-1.790;2023-02-28T03:52:14;7.80;;;2.47;;
78406;SDS011;67692;51.074;-1.790;2023-02-28T03:54:43;8.27;;;2.42;;
78406;SDS011;67692;51.074;-1.790;2023-02-28T03:59:42;7.80;;;2.33;;
78406;SDS011;67692;51.074;-1.790;2023-02-28T04:02:12;6.10;;;2.33;;
78406;SDS011;67692;51.074;-1.790;2023-02-28T04:04:39;6.95;;;2.08;;
78406;SDS011;67692;51.074;-1.790;2023-02-28T04:07:14;6.50;;;2.72;;
78406;SDS011;67692;51.074;-1.790;2023-02-28T04:09:41;5.97;;;2.80;;
78406;SDS011;67692;51.074;-1.790;2023-02-28T04:12:08;7.50;;;2.35;;
78406;SDS011;67692;51.074;-1.790;2023-02-28T04:14:36;7.32;;;3.13;;
78406;SDS011;67692;51.074;-1.790;2023-02-28T04:17:02;7.82;;;2.78;;
78406;SDS011;67692;51.074;-1.790;2023-02-28T04:19:29;6.18;;;2.50;;
78406;SDS011;67692;51.074;-1.790;2023-02-28T04:21:55;7.95;;;2.80;;
78406;SDS011;67692;51.074;-1.790;2023-02-28T04:24:24;7.80;;;3.05;;
78406;SDS011;67692;51.074;-1.790;2023-02-28T04:26:53;9.02;;;2.80;;
78406;SDS011;67692;51.074;-1.790;2023-02-28T04:29:21;9.13;;;2.80;;
78406;SDS011;67692;51.074;-1.790;2023-02-28T04:31:49;10.32;;;2.70;;
78406;SDS011;67692;51.074;-1.790;2023-02-28T04:34:18;5.20;;;2.08;;
78406;SDS011;67692;51.074;-1.790;2023-02-28T04:36:46;8.60;;;2.78;;
78406;SDS011;67692;51.074;-1.790;2023-02-28T04:39:14;7.32;;;2.38;;
78406;SDS011;67692;51.074;-1.790;2023-02-28T04:41:42;6.90;;;2.97;;
78406;SDS011;67692;51.074;-1.790;2023-02-28T04:44:08;12.25;;;2.83;;
78406;SDS011;67692;51.074;-1.790;2023-02-28T04:46:35;15.32;;;2.83;;
78406;SDS011;67692;51.074;-1.790;2023-02-28T04:49:01;7.25;;;2.35;;
78406;SDS011;67692;51.074;-1.790;2023-02-28T04:51:31;7.70;;;3.42;;
78406;SDS011;67692;51.074;-1.790;2023-02-28T04:53:58;10.95;;;3.42;;
78406;SDS011;67692;51.074;-1.790;2023-02-28T04:56:24;10.88;;;3.72;;
78406;SDS011;67692;51.074;-1.790;2023-02-28T04:58:52;9.68;;;4.07;;
78406;SDS011;67692;51.074;-1.790;2023-02-28T05:01:21;9.43;;;2.95;;
78406;SDS011;67692;51.074;-1.790;2023-02-28T05:03:50;11.80;;;3.42;;
78406;SDS011;67692;51.074;-1.790;2023-02-28T05:06:18;11.00;;;3.53;;
78406;SDS011;67692;51.074;-1.790;2023-02-28T05:08:45;10.98;;;4.05;;
78406;SDS011;67692;51.074;-1.790;2023-02-28T05:11:13;10.40;;;3.70;;
78406;SDS011;67692;51.074;-1.790;2023-02-28T05:13:42;10.35;;;3.88;;
78406;SDS011;67692;51.074;-1.790;2023-02-28T05:16:10;6.28;;;3.35;;
78406;SDS011;67692;51.074;-1.790;2023-02-28T05:18:37;8.73;;;3.38;;
78406;SDS011;67692;51.074;-1.790;2023-02-28T05:21:04;8.73;;;3.17;;
78406;SDS011;67692;51.074;-1.790;2023-02-28T05:23:31;9.95;;;3.63;;
78406;SDS011;67692;51.074;-1.790;2023-02-28T05:25:58;7.95;;;2.88;;
78406;SDS011;67692;51.074;-1.790;2023-02-28T05:28:25;13.35;;;3.85;;
78406;SDS011;67692;51.074;-1.790;2023-02-28T05:30:51;7.95;;;3.58;;
78406;SDS011;67692;51.074;-1.790;2023-02-28T05:33:19;12.05;;;3.45;;
78406;SDS011;67692;51.074;-1.790;2023-02-28T05:35:46;7.55;;;4.00;;
78406;SDS011;67692;51.074;-1.790;2023-02-28T05:38:12;7.88;;;3.83;;
78406;SDS011;67692;51.074;-1.790;2023-02-28T05:40:39;11.32;;;3.60;;
78406;SDS011;67692;51.074;-1.790;2023-02-28T05:43:07;9.95;;;3.42;;
78406;SDS011;67692;51.074;-1.790;2023-02-28T05:48:03;9.48;;;3.40;;
78406;SDS011;67692;51.074;-1.790;2023-02-28T05:50:31;7.07;;;3.08;;
78406;SDS011;67692;51.074;-1.790;2023-02-28T05:52:57;8.68;;;3.28;;
78406;SDS011;67692;51.074;-1.790;2023-02-28T05:55:24;8.38;;;3.25;;
78406;SDS011;67692;51.074;-1.790;2023-02-28T05:57:50;10.77;;;3.67;;
78406;SDS011;67692;51.074;-1.790;2023-02-28T06:00:17;9.60;;;3.15;;
78406;SDS011;67692;51.074;-1.790;2023-02-28T06:02:44;7.07;;;2.88;;
78406;SDS011;67692;51.074;-1.790;2023-02-28T06:05:12;6.70;;;3.20;;
78406;SDS011;67692;51.074;-1.790;2023-02-28T06:07:41;9.02;;;3.55;;
78406;SDS011;67692;51.074;-1.790;2023-02-28T06:10:08;6.93;;;3.13;;
78406;SDS011;67692;51.074;-1.790;2023-02-28T06:12:36;13.93;;;3.80;;
78406;SDS011;67692;51.074;-1.790;2023-02-28T06:15:03;8.93;;;3.35;;
78406;SDS011;67692;51.074;-1.790;2023-02-28T06:17:30;9.05;;;3.28;;
78406;SDS011;67692;51.074;-1.790;2023-02-28T06:19:57;8.95;;;3.20;;
78406;SDS011;67692;51.074;-1.790;2023-02-28T06:22:23;8.23;;;3.13;;
78406;SDS011;67692;51.074;-1.790;2023-02-28T06:24:51;13.85;;;3.78;;
78406;SDS011;67692;51.074;-1.790;2023-02-28T06:27:19;9.10;;;3.25;;
78406;SDS011;67692;51.074;-1.790;2023-02-28T06:29:47;6.80;;;2.88;;
78406;SDS011;67692;51.074;-1.790;2023-02-28T06:32:13;5.72;;;2.53;;
78406;SDS011;67692;51.074;-1.790;2023-02-28T06:34:40;7.35;;;2.90;;
78406;SDS011;67692;51.074;-1.790;2023-02-28T06:37:06;11.13;;;4.05;;
78406;SDS011;67692;51.074;-1.790;2023-02-28T06:39:33;9.63;;;3.15;;
78406;SDS011;67692;51.074;-1.790;2023-02-28T06:42:01;6.13;;;2.83;;
78406;SDS011;67692;51.074;-1.790;2023-02-28T06:44:27;8.43;;;3.17;;
78406;SDS011;67692;51.074;-1.790;2023-02-28T06:47:00;12.40;;;3.10;;
78406;SDS011;67692;51.074;-1.790;2023-02-28T06:49:27;9.02;;;2.85;;
78406;SDS011;67692;51.074;-1.790;2023-02-28T06:51:54;10.88;;;3.58;;
78406;SDS011;67692;51.074;-1.790;2023-02-28T06:54:20;9.63;;;3.30;;
78406;SDS011;67692;51.074;-1.790;2023-02-28T06:56:47;8.48;;;3.33;;
78406;SDS011;67692;51.074;-1.790;2023-02-28T06:59:15;8.35;;;2.95;;
78406;SDS011;67692;51.074;-1.790;2023-02-28T07:01:42;5.38;;;2.83;;
78406;SDS011;67692;51.074;-1.790;2023-02-28T07:04:08;7.57;;;2.75;;
78406;SDS011;67692;51.074;-1.790;2023-02-28T07:06:35;8.48;;;3.13;;
78406;SDS011;67692;51.074;-1.790;2023-02-28T07:09:02;6.88;;;2.55;;
78406;SDS011;67692;51.074;-1.790;2023-02-28T07:11:30;9.23;;;2.97;;
78406;SDS011;67692;51.074;-1.790;2023-02-28T07:13:57;7.55;;;3.28;;
78406;SDS011;67692;51.074;-1.790;2023-02-28T07:16:25;9.05;;;3.60;;
78406;SDS011;67692;51.074;-1.790;2023-02-28T07:18:52;10.55;;;2.78;;
78406;SDS011;67692;51.074;-1.790;2023-02-28T07:21:19;7.18;;;2.70;;
78406;SDS011;67692;51.074;-1.790;2023-02-28T07:23:46;10.65;;;3.15;;
78406;SDS011;67692;51.074;-1.790;2023-02-28T07:26:13;7.72;;;2.63;;
78406;SDS011;67692;51.074;-1.790;2023-02-28T07:28:42;8.77;;;3.33;;
78406;SDS011;67692;51.074;-1.790;2023-02-28T07:31:09;7.15;;;3.17;;
78406;SDS011;67692;51.074;-1.790;2023-02-28T07:33:38;7.47;;;3.38;;
78406;SDS011;67692;51.074;-1.790;2023-02-28T07:36:06;8.10;;;3.03;;
78406;SDS011;67692;51.074;-1.790;2023-02-28T07:38:34;8.93;;;3.20;;
78406;SDS011;67692;51.074;-1.790;2023-02-28T07:41:02;8.80;;;3.28;;
78406;SDS011;67692;51.074;-1.790;2023-02-28T07:43:30;7.32;;;3.30;;
78406;SDS011;67692;51.074;-1.790;2023-02-28T07:46:00;6.72;;;2.85;;
78406;SDS011;67692;51.074;-1.790;2023-02-28T07:48:28;7.47;;;3.35;;
78406;SDS011;67692;51.074;-1.790;2023-02-28T07:50:56;8.48;;;3.00;;
78406;SDS011;67692;51.074;-1.790;2023-02-28T07:53:23;10.13;;;3.05;;
78406;SDS011;67692;51.074;-1.790;2023-02-28T07:55:50;7.35;;;3.20;;
78406;SDS011;67692;51.074;-1.790;2023-02-28T07:58:16;7.97;;;3.15;;
78406;SDS011;67692;51.074;-1.790;2023-02-28T08:00:43;6.28;;;3.40;;
78406;SDS011;67692;51.074;-1.790;2023-02-28T08:03:10;8.98;;;3.03;;
78406;SDS011;67692;51.074;-1.790;2023-02-28T08:05:38;8.45;;;3.33;;
78406;SDS011;67692;51.074;-1.790;2023-02-28T08:08:07;10.98;;;3.55;;
78406;SDS011;67692;51.074;-1.790;2023-02-28T08:10:34;6.32;;;3.13;;
78406;SDS011;67692;51.074;-1.790;2023-02-28T08:13:02;11.82;;;3.00;;
78406;SDS011;67692;51.074;-1.790;2023-02-28T08:15:29;7.75;;;3.15;;
78406;SDS011;67692;51.074;-1.790;2023-02-28T08:17:56;8.75;;;2.88;;
78406;SDS011;67692;51.074;-1.790;2023-02-28T08:20:23;6.43;;;2.97;;
78406;SDS011;67692;51.074;-1.790;2023-02-28T08:22:49;10.23;;;2.85;;
78406;SDS011;67692;51.074;-1.790;2023-02-28T08:25:18;5.47;;;2.83;;
78406;SDS011;67692;51.074;-1.790;2023-02-28T08:27:44;9.65;;;2.85;;
78406;SDS011;67692;51.074;-1.790;2023-02-28T08:30:11;8.77;;;3.42;;
78406;SDS011;67692;51.074;-1.790;2023-02-28T08:32:39;11.82;;;2.55;;
78406;SDS011;67692;51.074;-1.790;2023-02-28T08:35:07;6.18;;;2.80;;
78406;SDS011;67692;51.074;-1.790;2023-02-28T08:37:35;8.43;;;2.55;;
78406;SDS011;67692;51.074;-1.790;2023-02-28T08:40:02;6.35;;;2.70;;
78406;SDS011;67692;51.074;-1.790;2023-02-28T08:42:30;5.95;;;2.40;;
78406;SDS011;67692;51.074;-1.790;2023-02-28T08:44:58;8.98;;;2.38;;
78406;SDS011;67692;51.074;-1.790;2023-02-28T08:47:24;4.78;;;2.33;;
78406;SDS011;67692;51.074;-1.790;2023-02-28T08:49:51;20.30;;;10.32;;
78406;SDS011;67692;51.074;-1.790;2023-02-28T08:52:18;16.95;;;9.98;;
78406;SDS011;67692;51.074;-1.790;2023-02-28T08:54:44;9.00;;;3.95;;
78406;SDS011;67692;51.074;-1.790;2023-02-28T08:57:11;14.50;;;6.45;;
78406;SDS011;67692;51.074;-1.790;2023-02-28T08:59:40;7.85;;;3.78;;
78406;SDS011;67692;51.074;-1.790;2023-02-28T09:02:08;23.13;;;10.98;;
78406;SDS011;67692;51.074;-1.790;2023-02-28T09:04:35;11.57;;;5.55;;
78406;SDS011;67692;51.074;-1.790;2023-02-28T09:07:02;11.02;;;5.28;;
78406;SDS011;67692;51.074;-1.790;2023-02-28T09:09:28;5.80;;;3.10;;
78406;SDS011;67692;51.074;-1.790;2023-02-28T09:11:55;8.95;;;3.42;;
78406;SDS011;67692;51.074;-1.790;2023-02-28T09:14:21;6.95;;;3.40;;
78406;SDS011;67692;51.074;-1.790;2023-02-28T09:16:50;7.25;;;2.97;;
78406;SDS011;67692;51.074;-1.790;2023-02-28T09:19:16;8.63;;;3.85;;
78406;SDS011;67692;51.074;-1.790;2023-02-28T09:21:43;9.80;;;3.20;;
78406;SDS011;67692;51.074;-1.790;2023-02-28T09:24:09;8.38;;;2.97;;
78406;SDS011;67692;51.074;-1.790;2023-02-28T09:26:39;8.95;;;3.63;;
78406;SDS011;67692;51.074;-1.790;2023-02-28T09:29:05;6.78;;;2.78;;
78406;SDS011;67692;51.074;-1.790;2023-02-28T09:31:32;6.68;;;3.20;;
78406;SDS011;67692;51.074;-1.790;2023-02-28T09:34:00;7.82;;;3.03;;
78406;SDS011;67692;51.074;-1.790;2023-02-28T09:36:26;7.78;;;2.83;;
78406;SDS011;67692;51.074;-1.790;2023-02-28T09:38:54;7.10;;;2.95;;
78406;SDS011;67692;51.074;-1.790;2023-02-28T09:41:22;5.50;;;2.30;;
78406;SDS011;67692;51.074;-1.790;2023-02-28T09:43:51;7.10;;;2.40;;
78406;SDS011;67692;51.074;-1.790;2023-02-28T09:46:25;7.70;;;3.00;;
78406;SDS011;67692;51.074;-1.790;2023-02-28T09:48:56;6.18;;;2.70;;
78406;SDS011;67692;51.074;-1.790;2023-02-28T09:51:30;5.03;;;1.92;;
78406;SDS011;67692;51.074;-1.790;2023-02-28T09:54:04;6.20;;;2.30;;
78406;SDS011;67692;51.074;-1.790;2023-02-28T09:56:32;5.22;;;1.90;;
78406;SDS011;67692;51.074;-1.790;2023-02-28T09:59:06;2.58;;;1.13;;
78406;SDS011;67692;51.074;-1.790;2023-02-28T10:01:42;7.30;;;2.83;;
78406;SDS011;67692;51.074;-1.790;2023-02-28T10:04:16;3.70;;;1.30;;
78406;SDS011;67692;51.074;-1.790;2023-02-28T10:07:02;3.83;;;1.35;;
78406;SDS011;67692;51.074;-1.790;2023-02-28T10:09:45;2.50;;;1.00;;
78406;SDS011;67692;51.074;-1.790;2023-02-28T10:12:16;1.55;;;0.80;;
78406;SDS011;67692;51.074;-1.790;2023-02-28T10:14:44;3.42;;;1.35;;
78406;SDS011;67692;51.074;-1.790;2023-02-28T10:17:13;3.30;;;1.33;;
78406;SDS011;67692;51.074;-1.790;2023-02-28T10:19:46;3.55;;;1.27;;
78406;SDS011;67692;51.074;-1.790;2023-02-28T10:22:24;5.10;;;0.98;;
78406;SDS011;67692;51.074;-1.790;2023-02-28T10:24:55;1.98;;;1.02;;
78406;SDS011;67692;51.074;-1.790;2023-02-28T10:29:55;2.25;;;1.02;;
78406;SDS011;67692;51.074;-1.790;2023-02-28T10:32:24;4.35;;;1.23;;
78406;SDS011;67692;51.074;-1.790;2023-02-28T10:34:54;2.78;;;1.30;;
78406;SDS011;67692;51.074;-1.790;2023-02-28T10:37:26;2.58;;;0.93;;
78406;SDS011;67692;51.074;-1.790;2023-02-28T10:39:53;5.65;;;1.52;;
78406;SDS011;67692;51.074;-1.790;2023-02-28T10:42:21;2.63;;;1.40;;
78406;SDS011;67692;51.074;-1.790;2023-02-28T10:45:03;4.80;;;1.38;;
78406;SDS011;67692;51.074;-1.790;2023-02-28T10:47:31;4.05;;;1.38;;
78406;SDS011;67692;51.074;-1.790;2023-02-28T10:50:01;3.75;;;1.15;;
78406;SDS011;67692;51.074;-1.790;2023-02-28T10:52:37;3.33;;;1.17;;
78406;SDS011;67692;51.074;-1.790;2023-02-28T10:55:16;2.38;;;0.80;;
78406;SDS011;67692;51.074;-1.790;2023-02-28T10:57:47;7.15;;;1.52;;
78406;SDS011;67692;51.074;-1.790;2023-02-28T11:00:16;2.22;;;0.93;;
78406;SDS011;67692;51.074;-1.790;2023-02-28T11:02:46;3.55;;;1.00;;
78406;SDS011;67692;51.074;-1.790;2023-02-28T11:07:59;2.47;;;1.23;;
78406;SDS011;67692;51.074;-1.790;2023-02-28T11:10:32;4.20;;;1.00;;
78406;SDS011;67692;51.074;-1.790;2023-02-28T11:13:00;3.75;;;1.40;;
78406;SDS011;67692;51.074;-1.790;2023-02-28T11:15:29;3.45;;;1.15;;
78406;SDS011;67692;51.074;-1.790;2023-02-28T11:17:58;9.35;;;1.23;;
78406;SDS011;67692;51.074;-1.790;2023-02-28T11:20:26;2.38;;;1.05;;
78406;SDS011;67692;51.074;-1.790;2023-02-28T11:22:54;2.67;;;0.85;;
78406;SDS011;67692;51.074;-1.790;2023-02-28T11:25:25;6.30;;;2.55;;
78406;SDS011;67692;51.074;-1.790;2023-02-28T11:27:56;2.83;;;1.08;;
78406;SDS011;67692;51.074;-1.790;2023-02-28T11:32:55;4.90;;;0.90;;
78406;SDS011;67692;51.074;-1.790;2023-02-28T11:35:23;6.47;;;0.93;;
78406;SDS011;67692;51.074;-1.790;2023-02-28T11:37:52;2.53;;;0.88;;
78406;SDS011;67692;51.074;-1.790;2023-02-28T11:40:21;1.27;;;0.70;;
78406;SDS011;67692;51.074;-1.790;2023-02-28T11:43:02;1.65;;;0.90;;
78406;SDS011;67692;51.074;-1.790;2023-02-28T11:45:42;3.85;;;1.23;;
78406;SDS011;67692;51.074;-1.790;2023-02-28T11:48:17;2.88;;;1.05;;
78406;SDS011;67692;51.074;-1.790;2023-02-28T11:50:54;2.47;;;0.90;;
78406;SDS011;67692;51.074;-1.790;2023-02-28T11:53:39;2.13;;;0.90;;
78406;SDS011;67692;51.074;-1.790;2023-02-28T11:56:18;4.13;;;1.17;;
78406;SDS011;67692;51.074;-1.790;2023-02-28T12:01:24;4.25;;;1.50;;
78406;SDS011;67692;51.074;-1.790;2023-02-28T12:04:06;3.00;;;1.05;;
78406;SDS011;67692;51.074;-1.790;2023-02-28T12:06:45;2.92;;;1.30;;
78406;SDS011;67692;51.074;-1.790;2023-02-28T12:09:35;3.08;;;1.25;;
78406;SDS011;67692;51.074;-1.790;2023-02-28T12:12:14;4.13;;;1.65;;
78406;SDS011;67692;51.074;-1.790;2023-02-28T12:14:54;2.90;;;1.25;;
78406;SDS011;67692;51.074;-1.790;2023-02-28T12:17:34;4.75;;;1.65;;
78406;SDS011;67692;51.074;-1.790;2023-02-28T12:20:13;7.30;;;1.75;;
78406;SDS011;67692;51.074;-1.790;2023-02-28T12:22:46;5.05;;;1.52;;
78406;SDS011;67692;51.074;-1.790;2023-02-28T12:25:28;4.28;;;1.90;;
78406;SDS011;67692;51.074;-1.790;2023-02-28T12:28:21;6.68;;;2.13;;
78406;SDS011;67692;51.074;-1.790;2023-02-28T12:30:53;4.72;;;2.08;;
78406;SDS011;67692;51.074;-1.790;2023-02-28T12:33:26;4.57;;;1.40;;
78406;SDS011;67692;51.074;-1.790;2023-02-28T12:35:59;6.75;;;2.55;;
78406;SDS011;67692;51.074;-1.790;2023-02-28T12:38:31;9.10;;;3.60;;
78406;SDS011;67692;51.074;-1.790;2023-02-28T12:41:03;8.85;;;2.80;;
78406;SDS011;67692;51.074;-1.790;2023-02-28T12:43:34;6.93;;;2.40;;
78406;SDS011;67692;51.074;-1.790;2023-02-28T12:46:07;4.32;;;1.40;;
78406;SDS011;67692;51.074;-1.790;2023-02-28T12:48:37;4.03;;;1.38;;
78406;SDS011;67692;51.074;-1.790;2023-02-28T12:51:08;5.65;;;1.85;;
78406;SDS011;67692;51.074;-1.790;2023-02-28T12:53:39;3.47;;;1.45;;
78406;SDS011;67692;51.074;-1.790;2023-02-28T12:56:17;5.47;;;2.13;;
78406;SDS011;67692;51.074;-1.790;2023-02-28T12:58:54;4.72;;;1.83;;
78406;SDS011;67692;51.074;-1.790;2023-02-28T13:01:36;5.55;;;1.92;;
78406;SDS011;67692;51.074;-1.790;2023-02-28T13:07:42;5.47;;;2.25;;
78406;SDS011;67692;51.074;-1.790;2023-02-28T13:10:20;4.10;;;1.88;;
78406;SDS011;67692;51.074;-1.790;2023-02-28T13:12:48;3.65;;;1.55;;
78406;SDS011;67692;51.074;-1.790;2023-02-28T13:15:18;4.00;;;1.65;;
78406;SDS011;67692;51.074;-1.790;2023-02-28T13:17:49;4.70;;;1.85;;
78406;SDS011;67692;51.074;-1.790;2023-02-28T13:20:19;5.50;;;2.05;;
78406;SDS011;67692;51.074;-1.790;2023-02-28T13:22:50;5.35;;;2.35;;
78406;SDS011;67692;51.074;-1.790;2023-02-28T13:31:33;4.80;;;2.03;;
78406;SDS011;67692;51.074;-1.790;2023-02-28T13:34:15;8.20;;;2.10;;
78406;SDS011;67692;51.074;-1.790;2023-02-28T13:36:42;6.43;;;3.47;;
78406;SDS011;67692;51.074;-1.790;2023-02-28T13:42:30;4.80;;;1.88;;
78406;SDS011;67692;51.074;-1.790;2023-02-28T13:45:20;5.43;;;2.00;;
78406;SDS011;67692;51.074;-1.790;2023-02-28T13:47:54;5.80;;;2.20;;
78406;SDS011;67692;51.074;-1.790;2023-02-28T13:50:32;5.43;;;2.05;;
78406;SDS011;67692;51.074;-1.790;2023-02-28T13:56:27;4.32;;;1.90;;
78406;SDS011;67692;51.074;-1.790;2023-02-28T13:59:07;8.70;;;1.88;;
78406;SDS011;67692;51.074;-1.790;2023-02-28T14:01:52;4.05;;;1.73;;
78406;SDS011;67692;51.074;-1.790;2023-02-28T14:04:50;5.93;;;2.45;;
78406;SDS011;67692;51.074;-1.790;2023-02-28T14:07:28;5.28;;;1.75;;
78406;SDS011;67692;51.074;-1.790;2023-02-28T14:09:59;4.28;;;1.73;;
78406;SDS011;67692;51.074;-1.790;2023-02-28T14:18:14;4.97;;;2.30;;
78406;SDS011;67692;51.074;-1.790;2023-02-28T14:20:45;7.97;;;2.50;;
78406;SDS011;67692;51.074;-1.790;2023-02-28T14:23:16;6.43;;;2.80;;
78406;SDS011;67692;51.074;-1.790;2023-02-28T14:25:54;5.93;;;2.58;;
78406;SDS011;67692;51.074;-1.790;2023-02-28T14:28:35;6.00;;;2.58;;
78406;SDS011;67692;51.074;-1.790;2023-02-28T14:31:12;7.22;;;2.70;;
78406;SDS011;67692;51.074;-1.790;2023-02-28T14:36:44;8.82;;;3.35;;
78406;SDS011;67692;51.074;-1.790;2023-02-28T14:39:12;11.07;;;4.70;;
78406;SDS011;67692;51.074;-1.790;2023-02-28T14:41:41;10.00;;;4.28;;
78406;SDS011;67692;51.074;-1.790;2023-02-28T14:44:15;5.45;;;2.55;;
78406;SDS011;67692;51.074;-1.790;2023-02-28T14:46:45;5.75;;;2.30;;
78406;SDS011;67692;51.074;-1.790;2023-02-28T14:49:16;5.95;;;1.70;;
78406;SDS011;67692;51.074;-1.790;2023-02-28T14:51:47;5.53;;;2.40;;
78406;SDS011;67692;51.074;-1.790;2023-02-28T14:54:15;7.05;;;2.22;;
78406;SDS011;67692;51.074;-1.790;2023-02-28T14:56:51;10.32;;;3.67;;
78406;SDS011;67692;51.074;-1.790;2023-02-28T14:59:24;6.35;;;2.35;;
78406;SDS011;67692;51.074;-1.790;2023-02-28T15:04:41;5.53;;;1.88;;
78406;SDS011;67692;51.074;-1.790;2023-02-28T15:07:09;5.85;;;1.95;;
78406;SDS011;67692;51.074;-1.790;2023-02-28T15:09:37;6.32;;;1.95;;
78406;SDS011;67692;51.074;-1.790;2023-02-28T15:12:04;4.78;;;1.85;;
78406;SDS011;67692;51.074;-1.790;2023-02-28T15:14:31;6.55;;;2.35;;
78406;SDS011;67692;51.074;-1.790;2023-02-28T15:16:59;7.78;;;2.63;;
78406;SDS011;67692;51.074;-1.790;2023-02-28T15:19:31;6.72;;;2.35;;
78406;SDS011;67692;51.074;-1.790;2023-02-28T15:22:02;6.05;;;2.20;;
78406;SDS011;67692;51.074;-1.790;2023-02-28T15:24:36;8.05;;;2.45;;
78406;SDS011;67692;51.074;-1.790;2023-02-28T15:27:09;4.75;;;2.20;;
78406;SDS011;67692;51.074;-1.790;2023-02-28T15:29:42;5.75;;;1.83;;
78406;SDS011;67692;51.074;-1.790;2023-02-28T15:32:21;9.10;;;2.25;;
78406;SDS011;67692;51.074;-1.790;2023-02-28T15:34:51;6.72;;;2.40;;
78406;SDS011;67692;51.074;-1.790;2023-02-28T15:37:26;6.50;;;2.22;;
78406;SDS011;67692;51.074;-1.790;2023-02-28T15:39:57;5.05;;;1.95;;
78406;SDS011;67692;51.074;-1.790;2023-02-28T15:42:31;6.78;;;2.75;;
78406;SDS011;67692;51.074;-1.790;2023-02-28T15:44:58;6.55;;;2.38;;
78406;SDS011;67692;51.074;-1.790;2023-02-28T15:47:26;6.68;;;3.00;;
78406;SDS011;67692;51.074;-1.790;2023-02-28T15:49:54;5.90;;;2.70;;